Anderson Regional Airport
KAND : rendu visible

Aérodrome :











RETROUVEZ-NOUS SUR...

 
LOGIN :

S'inscrire | Disclaimer

   EN    FR    IT 

 









Légende :    VFR   VFR Marginal   IFR   IFR Intensif   IFR Très Intensif
Visi : 
Plafond : 
>= 8 km
>= 3000ft
5 à 8 km
1000 à 3000 ft
1500m à 5 km
500 à 1000 ft
800 à 1500m
200 à 500 ft
< 800m
< 200 ft
Symboles :   Orages  Brouillard  Fortes neiges  Fortes précipitations  Vent > 20 kt






- Altitude de l'aérodrome : 782 ft


KAND - Anderson Regional

DERNIER METAR :
  • 211556Z AUTO 24003KT 10SM CLR 14/04 A3030 RMK AO2 SLP259 T01390044

METARs EXPIRÉS :
  • 211456Z AUTO 00000KT 10SM CLR 11/04 A3031 RMK AO2 SLP264 T01110039 50008
  • 211356Z AUTO 00000KT 10SM CLR 09/04 A3031 RMK AO2 SLP265 T00890044

TAF KAND
Valide du 21 à 12h jusqu'au 22 à 12h UTC


211130Z 2112/2212 00000KT P6SM BKN250
FM211500 15004KT P6SM BKN250
FM211800 22006KT P6SM BKN250
FM212300 20004KT P6SM SCT120 BKN250



MET'MAP, la Météo Aéronautique d'un coup d'oeil ! - Copyright ORBIFLY Décembre 2007 - Disclaimer

ORBIFLY MET'MAP TEAM :

Programmation & Développement : Alexandra Zaïnal
Conception & Développement : Baudouin d'Aumeries
Co-Programmation & Développement : Marc-Olivier Méhu
Soutien technique & logistique : Manuel Goepfert

Contact : metmap@orbifly.com




SOURCES & CREDITS :

   NOAA       Earth
Advisory